Time;durP1;ratioP1;P1;durP2;ratioP2;P2;SDS_P1;SDS_P2;PMS_P1;PMS_P2;Temp;Humidity;BMP_temperature;BMP_pressure;BME280_temperature;BME280_humidity;BME280_pressure;Samples;Min_cycle;Max_cycle;Signal;HPM_P1;HPM_P2
2022/08/12 00:45:09;;;;;;;5.70;4.23;;;24.50;17.90;;;;;;4969973;28;20514;-70
2022/08/12 00:47:35;;;;;;;8.10;4.50;;;24.60;17.70;;;;;;4973297;28;20622;-70
2022/08/12 00:50:01;;;;;;;7.07;4.70;;;24.40;18.10;;;;;;4973004;28;20535;-72
2022/08/12 00:52:27;;;;;;;5.93;4.50;;;24.30;18.90;;;;;;4973021;28;20442;-70
2022/08/12 00:54:57;;;;;;;5.20;4.63;;;24.40;18.70;;;;;;4973762;28;20522;-70
2022/08/12 00:57:35;;;;;;;6.03;4.30;;;24.50;18.30;;;;;;4973326;28;20240;-70
2022/08/12 01:00:07;;;;;;;8.37;4.37;;;24.50;18.90;;;;;;4973333;28;20457;-70
2022/08/12 01:02:39;;;;;;;9.00;4.20;;;24.50;19.40;;;;;;4967157;28;20443;-70
2022/08/12 01:13:25;;;;;;;5.67;4.90;;;24.20;19.50;;;;;;4973529;28;20512;-70
2022/08/12 01:15:56;;;;;;;6.60;4.70;;;24.30;19.80;;;;;;4973770;28;20469;-70
2022/08/12 01:18:24;;;;;;;19.40;4.73;;;24.10;18.60;;;;;;4972779;28;20464;-70
2022/08/12 01:20:55;;;;;;;9.80;4.67;;;24.30;19.20;;;;;;4957663;28;20433;-70
2022/08/12 01:23:40;;;;;;;11.80;4.80;;;24.30;19.40;;;;;;4970074;28;20463;-70
2022/08/12 01:26:15;;;;;;;10.03;4.53;;;24.30;18.70;;;;;;4973771;28;20464;-70
2022/08/12 01:28:43;;;;;;;8.13;4.70;;;24.40;20.20;;;;;;4972639;28;20522;-70
2022/08/12 01:31:10;;;;;;;4.83;4.60;;;24.30;20.40;;;;;;4973282;28;20425;-71
2022/08/12 01:33:45;;;;;;;9.80;5.30;;;24.20;21.40;;;;;;4972106;28;20443;-70
2022/08/12 01:36:12;;;;;;;10.70;4.70;;;23.80;20.90;;;;;;4973676;28;20462;-70
2022/08/12 01:38:42;;;;;;;13.30;5.17;;;24.00;20.80;;;;;;4972677;28;20462;-70
2022/08/12 01:41:12;;;;;;;11.30;5.13;;;23.90;20.90;;;;;;4970624;28;20418;-70
2022/08/12 01:43:39;;;;;;;9.80;5.90;;;23.60;20.70;;;;;;4964895;28;20795;-70
2022/08/12 01:46:09;;;;;;;8.40;6.10;;;22.70;22.20;;;;;;4954161;29;20420;-70
2022/08/12 01:48:53;;;;;;;9.33;5.97;;;21.90;23.40;;;;;;4970067;28;20478;-70
2022/08/12 01:51:41;;;;;;;8.87;6.10;;;22.10;22.90;;;;;;4968958;28;20468;-69
2022/08/12 01:54:15;;;;;;;10.07;5.90;;;22.40;23.50;;;;;;4972052;28;20965;-70
2022/08/12 01:56:47;;;;;;;9.70;5.73;;;22.80;22.60;;;;;;4974447;28;20429;-70
2022/08/12 02:02:10;;;;;;;6.43;5.50;;;22.90;22.60;;;;;;4973439;28;20893;-70
2022/08/12 02:11:17;;;;;;;8.83;6.23;;;22.50;23.90;;;;;;4961250;28;20454;-72
2022/08/12 02:13:59;;;;;;;6.70;5.63;;;22.50;23.50;;;;;;4966859;28;20479;-70
2022/08/12 02:16:37;;;;;;;8.83;5.90;;;22.60;23.40;;;;;;4972718;28;20490;-69
2022/08/12 02:19:09;;;;;;;8.17;6.47;;;22.50;24.20;;;;;;4972568;28;20431;-70
2022/08/12 02:21:34;;;;;;;8.17;5.67;;;22.40;24.30;;;;;;4972739;28;20399;-70
2022/08/12 02:24:02;;;;;;;9.10;6.10;;;22.40;23.50;;;;;;4970048;28;20444;-70
2022/08/12 02:26:31;;;;;;;8.33;5.70;;;22.30;23.90;;;;;;4965208;28;20219;-70
2022/08/12 02:28:58;;;;;;;7.80;5.53;;;22.10;24.00;;;;;;4972737;28;20789;-70
2022/08/12 02:31:26;;;;;;;9.90;5.70;;;22.20;23.80;;;;;;4972605;28;20470;-70
2022/08/12 02:33:52;;;;;;;10.70;5.90;;;22.20;24.40;;;;;;4969095;28;20927;-70
2022/08/12 02:36:18;;;;;;;11.10;5.73;;;22.10;25.10;;;;;;4972659;28;20420;-70
2022/08/12 02:38:44;;;;;;;9.20;5.70;;;22.00;25.10;;;;;;4972834;28;20437;-70
2022/08/12 02:41:15;;;;;;;6.70;5.03;;;22.10;24.50;;;;;;4972506;28;20186;-70
2022/08/12 02:43:49;;;;;;;8.53;5.37;;;22.30;23.90;;;;;;4972058;28;20427;-70
2022/08/12 02:46:22;;;;;;;6.90;4.53;;;22.30;23.10;;;;;;4980768;28;20443;-70
2022/08/12 02:48:59;;;;;;;8.83;5.23;;;22.40;23.20;;;;;;4972500;28;20530;-70
2022/08/12 02:51:30;;;;;;;10.10;6.60;;;22.40;21.90;;;;;;4972427;28;20429;-69
2022/08/12 02:53:59;;;;;;;11.70;7.10;;;21.10;24.90;;;;;;4972508;28;20788;-70
2022/08/12 02:56:27;;;;;;;13.03;7.40;;;20.50;26.90;;;;;;4976912;28;20483;-72
2022/08/12 02:58:53;;;;;;;12.77;7.57;;;20.10;26.90;;;;;;4972657;28;20443;-69
2022/08/12 03:01:23;;;;;;;10.37;7.20;;;20.00;27.70;;;;;;4972008;28;20423;-70
2022/08/12 03:03:51;;;;;;;12.83;8.10;;;20.10;27.50;;;;;;4972398;28;20438;-69
2022/08/12 03:06:22;;;;;;;10.20;7.40;;;20.60;28.00;;;;;;4970186;28;20435;-70
2022/08/12 03:08:52;;;;;;;9.47;7.13;;;20.80;26.50;;;;;;4979547;28;20529;-70
2022/08/12 03:11:24;;;;;;;12.50;7.90;;;20.70;26.50;;;;;;4972066;28;20489;-70
2022/08/12 03:13:56;;;;;;;9.87;7.63;;;20.70;26.50;;;;;;4972444;28;20415;-70
2022/08/12 03:16:25;;;;;;;11.60;8.40;;;20.90;26.60;;;;;;4966466;28;20434;-70
2022/08/12 03:18:51;;;;;;;10.37;7.30;;;21.10;26.80;;;;;;4979346;28;20456;-70
2022/08/12 03:21:18;;;;;;;9.30;7.00;;;21.00;26.50;;;;;;4971937;28;20471;-70
2022/08/12 03:23:45;;;;;;;10.33;7.83;;;21.10;26.80;;;;;;4972205;28;20414;-71
2022/08/12 03:26:11;;;;;;;12.47;8.10;;;21.40;25.30;;;;;;4971035;28;20433;-70
2022/08/12 03:28:56;;;;;;;27.23;8.67;;;21.30;26.90;;;;;;4972662;28;20443;-70
2022/08/12 03:31:32;;;;;;;11.73;7.07;;;21.00;26.70;;;;;;4975518;28;20435;-71
2022/08/12 03:34:28;;;;;;;20.73;7.90;;;21.00;27.00;;;;;;4979190;28;20447;-70
2022/08/12 03:36:57;;;;;;;15.20;7.90;;;20.90;27.70;;;;;;4960818;28;20434;-70
2022/08/12 03:42:05;;;;;;;14.90;8.27;;;20.80;28.30;;;;;;4975000;28;20937;-71
2022/08/12 04:01:15;;;;;;;10.97;7.07;;;20.60;27.60;;;;;;4973266;28;20976;-73
2022/08/12 04:03:53;;;;;;;12.50;7.37;;;20.80;27.90;;;;;;4974505;28;20410;-73
2022/08/12 04:06:21;;;;;;;11.07;7.13;;;20.60;27.80;;;;;;4974898;28;20178;-73
2022/08/12 04:08:49;;;;;;;10.20;7.40;;;20.60;26.80;;;;;;4973134;28;20467;-73
2022/08/12 04:14:20;;;;;;;14.50;7.40;;;20.40;27.70;;;;;;4974392;28;20401;-73
2022/08/12 04:16:49;;;;;;;12.30;7.03;;;20.20;28.10;;;;;;4974252;28;20916;-73
2022/08/12 04:19:16;;;;;;;9.03;6.87;;;20.30;28.20;;;;;;4973831;28;20523;-73
2022/08/12 04:21:43;;;;;;;19.43;7.23;;;20.20;28.90;;;;;;4972902;28;20521;-73
2022/08/12 04:24:09;;;;;;;11.80;7.10;;;20.20;27.90;;;;;;4974428;28;20503;-73
2022/08/12 04:26:35;;;;;;;13.70;7.10;;;20.20;28.60;;;;;;4973715;28;20444;-73
2022/08/12 04:29:02;;;;;;;12.07;7.43;;;20.30;27.90;;;;;;4973431;28;20496;-73
2022/08/12 04:31:39;;;;;;;11.43;7.30;;;20.30;28.70;;;;;;4961164;28;20443;-73
2022/08/12 04:34:06;;;;;;;19.57;8.43;;;20.20;28.60;;;;;;4974169;28;20405;-73
2022/08/12 04:36:33;;;;;;;8.90;7.07;;;19.90;28.10;;;;;;4974587;28;20413;-73
2022/08/12 04:39:00;;;;;;;21.73;8.17;;;20.00;28.60;;;;;;4972445;28;20813;-73
2022/08/12 04:41:28;;;;;;;13.97;7.10;;;20.20;27.20;;;;;;4964196;28;20417;-73
2022/08/12 04:43:54;;;;;;;10.40;7.70;;;20.50;27.90;;;;;;4973852;28;20424;-73
2022/08/12 04:46:20;;;;;;;17.27;8.17;;;20.30;28.30;;;;;;4974253;28;20415;-73
2022/08/12 04:48:46;;;;;;;14.47;7.90;;;19.70;29.10;;;;;;4973845;28;20635;-73
2022/08/12 04:51:13;;;;;;;12.67;9.67;;;19.60;30.00;;;;;;4972138;28;20490;-73
2022/08/12 04:53:42;;;;;;;13.70;9.30;;;19.50;29.30;;;;;;4972358;28;20426;-73
2022/08/12 04:56:11;;;;;;;10.60;7.63;;;19.60;29.50;;;;;;4974063;28;20482;-73
2022/08/12 04:58:37;;;;;;;23.20;9.20;;;19.40;29.80;;;;;;4972199;28;20496;-72
2022/08/12 05:01:04;;;;;;;12.67;8.20;;;19.00;29.10;;;;;;4973613;28;20416;-73
2022/08/12 05:03:30;;;;;;;29.50;20.30;;;19.10;31.80;;;;;;4973396;28;20428;-73
2022/08/12 05:05:56;;;;;;;36.50;27.97;;;19.10;29.90;;;;;;4973781;28;20483;-73
2022/08/12 05:08:25;;;;;;;41.33;27.90;;;19.10;30.40;;;;;;4973063;28;20468;-73
2022/08/12 05:10:52;;;;;;;30.03;22.40;;;19.20;31.00;;;;;;4972624;28;20445;-73
2022/08/12 05:13:28;;;;;;;28.50;19.90;;;19.40;30.20;;;;;;4972867;28;20438;-73
2022/08/12 05:15:53;;;;;;;31.03;20.20;;;19.60;30.40;;;;;;4973447;28;20568;-73
2022/08/12 05:18:20;;;;;;;25.43;16.83;;;19.90;29.30;;;;;;4972550;28;20528;-73
2022/08/12 05:20:47;;;;;;;21.93;14.10;;;19.80;29.70;;;;;;4972839;28;20270;-73
2022/08/12 05:23:18;;;;;;;20.97;15.90;;;20.00;29.50;;;;;;4973435;28;20415;-73
2022/08/12 05:25:48;;;;;;;16.10;11.87;;;20.20;30.00;;;;;;4973195;28;20805;-73
2022/08/12 05:28:15;;;;;;;24.27;9.10;;;20.30;28.40;;;;;;4972233;28;20464;-73
2022/08/12 05:30:44;;;;;;;9.03;7.90;;;20.30;29.00;;;;;;4973759;28;20447;-73
2022/08/12 05:33:10;;;;;;;14.70;8.07;;;20.00;28.40;;;;;;4973194;28;20475;-73
2022/08/12 05:35:39;;;;;;;14.40;7.70;;;20.50;28.60;;;;;;4970885;28;20460;-73
2022/08/12 05:41:01;;;;;;;13.10;7.93;;;20.10;30.10;;;;;;4972545;28;20520;-73
2022/08/12 05:43:27;;;;;;;12.30;9.10;;;20.30;28.90;;;;;;4955674;28;20415;-73
2022/08/12 05:45:53;;;;;;;20.63;10.30;;;20.20;28.90;;;;;;4972527;28;20531;-74
2022/08/12 05:48:20;;;;;;;16.63;10.10;;;20.00;28.50;;;;;;4959575;28;20962;-73
2022/08/12 05:50:47;;;;;;;15.10;10.10;;;20.10;28.80;;;;;;4964608;28;20449;-73
2022/08/12 05:53:13;;;;;;;14.03;9.10;;;20.00;28.70;;;;;;4972778;28;20440;-73
2022/08/12 05:55:39;;;;;;;25.20;9.90;;;20.20;29.70;;;;;;4970535;28;20518;-73
2022/08/12 05:58:06;;;;;;;16.87;10.33;;;;;;;;;;4972073;28;20434;-73
2022/08/12 06:00:34;;;;;;;14.70;10.03;;;20.40;28.70;;;;;;4971768;28;20432;-73
2022/08/12 06:03:04;;;;;;;15.70;9.67;;;20.80;28.60;;;;;;4972302;28;20833;-73
2022/08/12 06:05:35;;;;;;;14.00;9.30;;;20.90;27.60;;;;;;4965198;28;20437;-73
2022/08/12 06:08:06;;;;;;;12.93;9.47;;;20.70;27.90;;;;;;4972100;28;20432;-73
2022/08/12 06:10:33;;;;;;;16.13;9.80;;;20.80;28.30;;;;;;4972734;28;20769;-73
2022/08/12 06:13:06;;;;;;;12.33;9.37;;;20.50;28.10;;;;;;4971507;28;20441;-73
2022/08/12 06:15:36;;;;;;;17.70;9.60;;;20.00;28.40;;;;;;4965278;28;20457;-73
2022/08/12 06:18:07;;;;;;;14.80;10.13;;;20.10;29.00;;;;;;4971163;28;20427;-73
2022/08/12 06:20:34;;;;;;;12.40;9.20;;;20.20;28.50;;;;;;4971001;28;20446;-73
2022/08/12 06:23:01;;;;;;;20.10;10.10;;;20.00;28.50;;;;;;4972053;28;20455;-73
2022/08/12 06:25:27;;;;;;;13.00;9.57;;;20.00;29.80;;;;;;4971380;28;20439;-73
2022/08/12 06:27:54;;;;;;;17.20;9.57;;;20.10;29.30;;;;;;4971828;28;20454;-73
2022/08/12 06:30:20;;;;;;;14.60;9.80;;;20.60;29.80;;;;;;4972409;28;20821;-73
2022/08/12 06:32:48;;;;;;;16.13;8.23;;;21.30;28.70;;;;;;4962248;28;20455;-73
2022/08/12 06:35:18;;;;;;;20.60;8.60;;;21.10;27.50;;;;;;4955488;28;20841;-73
2022/08/12 06:37:46;;;;;;;13.70;8.23;;;21.00;27.80;;;;;;4962953;28;20813;-73
2022/08/12 06:40:12;;;;;;;13.43;8.50;;;21.00;28.40;;;;;;4972248;28;20521;-73
2022/08/12 06:42:48;;;;;;;14.80;7.80;;;21.40;27.20;;;;;;4970309;28;20462;-72
2022/08/12 06:45:14;;;;;;;11.03;8.30;;;21.40;27.30;;;;;;4968651;28;20439;-72
2022/08/12 06:47:40;;;;;;;15.50;8.63;;;21.50;26.60;;;;;;4969688;28;20813;-73
2022/08/12 06:50:07;;;;;;;14.63;8.90;;;21.50;27.00;;;;;;4971454;28;20486;-72
2022/08/12 06:52:33;;;;;;;15.73;9.57;;;21.50;27.60;;;;;;4971825;28;20522;-73
2022/08/12 06:54:59;;;;;;;22.33;8.60;;;21.80;27.30;;;;;;4972237;28;20543;-73
2022/08/12 06:57:26;;;;;;;12.80;6.87;;;21.80;26.80;;;;;;4971494;28;20239;-72
2022/08/12 06:59:53;;;;;;;8.43;7.00;;;21.80;27.30;;;;;;4971043;28;20240;-73
2022/08/12 07:02:19;;;;;;;12.30;7.20;;;21.80;27.00;;;;;;4970455;28;20947;-73
2022/08/12 07:04:46;;;;;;;8.97;6.93;;;21.70;26.70;;;;;;4972669;28;20499;-73
2022/08/12 07:07:12;;;;;;;15.77;7.57;;;22.00;26.80;;;;;;4970807;28;20464;-73
2022/08/12 07:09:41;;;;;;;9.33;6.23;;;22.00;26.40;;;;;;4975418;28;20484;-73
2022/08/12 07:12:15;;;;;;;13.90;5.60;;;22.50;26.90;;;;;;4973070;28;20441;-73
2022/08/12 07:14:41;;;;;;;13.30;5.93;;;23.00;24.50;;;;;;4974086;28;20458;-73
2022/08/12 07:17:07;;;;;;;9.93;5.90;;;23.30;24.60;;;;;;4972034;28;20436;-73
2022/08/12 07:19:33;;;;;;;13.23;6.00;;;23.50;24.90;;;;;;4974809;28;20225;-73
2022/08/12 07:22:05;;;;;;;21.27;6.77;;;23.40;23.90;;;;;;4975232;28;20182;-73
2022/08/12 07:24:31;;;;;;;18.37;6.37;;;23.20;24.50;;;;;;4973866;28;21127;-73
2022/08/12 07:26:57;;;;;;;12.60;5.97;;;23.50;24.00;;;;;;4974908;28;20450;-73
2022/08/12 07:29:24;;;;;;;13.13;5.40;;;23.50;24.30;;;;;;4975523;28;20821;-73
2022/08/12 07:31:51;;;;;;;13.33;6.63;;;23.50;24.10;;;;;;4972126;28;20537;-73
2022/08/12 07:34:17;;;;;;;13.13;5.43;;;22.90;24.60;;;;;;4975495;28;20418;-73
2022/08/12 07:36:44;;;;;;;10.33;5.67;;;22.80;25.80;;;;;;4975563;28;20464;-73
2022/08/12 07:39:09;;;;;;;18.00;6.17;;;23.50;25.30;;;;;;4970838;28;20588;-73
2022/08/12 07:41:35;;;;;;;9.23;5.90;;;23.70;24.00;;;;;;4974392;28;20417;-74
2022/08/12 07:44:04;;;;;;;9.50;5.93;;;23.50;24.40;;;;;;4973607;28;20664;-73
2022/08/12 07:46:36;;;;;;;8.10;5.60;;;23.40;24.50;;;;;;4972318;28;20180;-73
2022/08/12 07:49:14;;;;;;;14.00;5.87;;;23.10;25.30;;;;;;4973946;28;20998;-73
2022/08/12 07:51:41;;;;;;;9.57;6.30;;;23.40;24.70;;;;;;4973166;28;20448;-73
2022/08/12 07:54:08;;;;;;;7.40;5.70;;;23.20;24.90;;;;;;4970555;28;21692;-73
2022/08/12 07:56:36;;;;;;;10.40;6.33;;;23.50;24.40;;;;;;4970534;28;21528;-73
2022/08/12 07:59:03;;;;;;;8.40;6.70;;;23.40;24.90;;;;;;4970759;28;20444;-72
2022/08/12 08:01:31;;;;;;;8.93;5.87;;;23.10;24.90;;;;;;4966545;28;20430;-72
2022/08/12 08:06:41;;;;;;;9.10;5.80;;;24.10;23.80;;;;;;4963578;28;20506;-72
2022/08/12 08:09:10;;;;;;;10.70;5.43;;;23.90;22.70;;;;;;4972119;28;20452;-71
2022/08/12 08:14:24;;;;;;;10.30;5.27;;;23.90;23.70;;;;;;4974375;28;20393;-71
2022/08/12 08:16:49;;;;;;;7.87;5.30;;;24.70;22.00;;;;;;4973414;28;20432;-72
2022/08/12 08:19:19;;;;;;;15.53;5.20;;;25.30;21.10;;;;;;4974818;28;20798;-73
2022/08/12 08:21:45;;;;;;;9.23;5.00;;;25.70;21.00;;;;;;4974255;28;20217;-71
2022/08/12 08:24:14;;;;;;;8.67;4.80;;;26.00;20.60;;;;;;4973151;28;20458;-71
2022/08/12 08:26:49;;;;;;;16.37;5.33;;;26.00;20.40;;;;;;4972327;28;20216;-71
2022/08/12 08:29:16;;;;;;;8.87;4.80;;;26.20;21.30;;;;;;4974135;28;20464;-71
2022/08/12 08:31:44;;;;;;;13.40;5.70;;;25.90;20.70;;;;;;4974330;28;20847;-72
2022/08/12 08:34:12;;;;;;;6.33;4.87;;;26.10;20.20;;;;;;4972582;28;20864;-71
2022/08/12 08:36:38;;;;;;;12.60;5.00;;;26.10;20.30;;;;;;4971958;28;20516;-71
2022/08/12 08:39:08;;;;;;;11.60;5.00;;;26.10;19.90;;;;;;4972366;28;20861;-71
2022/08/12 08:44:19;;;;;;;11.83;4.93;;;26.30;19.50;;;;;;4973436;28;20392;-72
2022/08/12 08:46:45;;;;;;;8.60;4.73;;;26.60;19.00;;;;;;4973558;28;20513;-71
2022/08/12 08:49:12;;;;;;;10.07;4.53;;;26.80;19.30;;;;;;4958808;28;20214;-71
2022/08/12 08:51:38;;;;;;;5.30;4.10;;;26.90;16.50;;;;;;4962196;28;20472;-71
2022/08/12 08:54:05;;;;;;;10.40;4.90;;;27.00;17.00;;;;;;4973876;28;20497;-72
2022/08/12 08:56:32;;;;;;;4.27;4.00;;;26.90;14.60;;;;;;4971744;28;20438;-71
2022/08/12 08:58:58;;;;;;;6.87;3.73;;;27.00;14.90;;;;;;4973996;28;20469;-71
2022/08/12 09:01:25;;;;;;;8.13;4.20;;;27.20;14.10;;;;;;4972868;28;20437;-74
2022/08/12 09:03:50;;;;;;;13.53;4.03;;;27.10;13.80;;;;;;4973327;28;20421;-73
2022/08/12 09:06:16;;;;;;;7.50;4.30;;;27.30;15.40;;;;;;4972813;28;20422;-71
2022/08/12 09:08:42;;;;;;;5.13;3.77;;;27.40;14.60;;;;;;4968581;28;20892;-71
2022/08/12 09:13:53;;;;;;;8.93;3.83;;;27.40;14.50;;;;;;4973136;28;20863;-72
2022/08/12 09:16:19;;;;;;;10.73;4.00;;;27.20;15.20;;;;;;4973284;28;20454;-73
2022/08/12 09:18:45;;;;;;;4.77;4.00;;;27.00;14.30;;;;;;4973409;28;20677;-71
2022/08/12 09:21:12;;;;;;;9.93;4.13;;;27.10;15.50;;;;;;4973564;28;20418;-71
2022/08/12 09:23:38;;;;;;;6.70;4.50;;;27.40;14.80;;;;;;4973108;28;20497;-71
2022/08/12 09:26:04;;;;;;;5.43;3.83;;;27.70;13.80;;;;;;4973315;28;20469;-71
2022/08/12 09:28:32;;;;;;;9.53;4.10;;;27.70;14.70;;;;;;4970185;28;20222;-73
2022/08/12 09:30:58;;;;;;;8.93;4.17;;;27.80;14.90;;;;;;4971865;28;20925;-71
2022/08/12 09:33:32;;;;;;;6.17;4.50;;;28.00;14.50;;;;;;4972726;28;20477;-72
2022/08/12 09:35:59;;;;;;;6.60;4.10;;;28.00;15.70;;;;;;4972950;28;21011;-72
2022/08/12 09:38:27;;;;;;;6.43;3.60;;;28.00;13.90;;;;;;4970665;28;20673;-72
2022/08/12 09:40:53;;;;;;;18.70;4.30;;;28.00;14.70;;;;;;4969778;28;20790;-72
2022/08/12 09:46:03;;;;;;;5.93;3.63;;;28.40;12.70;;;;;;4965294;28;20618;-72
2022/08/12 09:48:29;;;;;;;12.00;3.70;;;28.60;13.40;;;;;;4969644;28;20529;-72
2022/08/12 09:50:54;;;;;;;8.33;3.60;;;28.50;13.10;;;;;;4971403;28;20558;-72
2022/08/12 09:53:23;;;;;;;3.87;3.70;;;28.90;13.50;;;;;;4972026;28;20434;-72
2022/08/12 09:55:51;;;;;;;6.10;3.80;;;29.20;12.30;;;;;;4972997;28;20277;-72
2022/08/12 09:58:27;;;;;;;6.43;3.77;;;29.60;12.80;;;;;;4972961;28;20422;-72
2022/08/12 10:01:01;;;;;;;6.73;4.37;;;29.60;13.60;;;;;;4967334;28;20501;-72
2022/08/12 10:03:35;;;;;;;5.43;3.90;;;29.40;11.10;;;;;;4966159;28;20421;-72
2022/08/12 10:06:04;;;;;;;8.80;3.80;;;29.70;12.60;;;;;;4972946;28;20420;-72
2022/08/12 10:08:30;;;;;;;4.67;3.60;;;29.90;10.90;;;;;;4973017;28;20941;-71
2022/08/12 10:13:43;;;;;;;4.87;3.67;;;29.80;11.30;;;;;;4972092;28;20444;-72
2022/08/12 10:16:18;;;;;;;5.63;3.80;;;29.40;11.90;;;;;;4972988;28;20453;-72
2022/08/12 10:18:48;;;;;;;5.57;3.47;;;29.50;10.90;;;;;;4972685;28;20520;-73
2022/08/12 10:21:16;;;;;;;3.57;3.43;;;29.50;11.70;;;;;;4972321;28;20475;-72
2022/08/12 10:23:46;;;;;;;3.47;3.30;;;29.60;11.10;;;;;;4971873;28;20437;-72
2022/08/12 10:31:52;;;;;;;5.27;3.50;;;30.00;9.90;;;;;;4972210;28;20860;-71
2022/08/12 10:34:22;;;;;;;7.27;3.60;;;29.90;11.10;;;;;;4971973;28;20421;-71
2022/08/12 10:36:50;;;;;;;8.03;3.97;;;29.90;10.10;;;;;;4972246;28;20390;-71
2022/08/12 10:39:17;;;;;;;7.43;3.50;;;30.40;10.10;;;;;;4955091;28;20513;-71
2022/08/12 10:44:28;;;;;;;8.97;3.30;;;30.60;9.80;;;;;;4974995;28;20798;-72
2022/08/12 10:46:55;;;;;;;12.53;3.60;;;30.30;9.30;;;;;;4957137;28;20485;-71
2022/08/12 10:49:26;;;;;;;5.70;3.23;;;30.50;9.40;;;;;;4956956;28;20481;-71
2022/08/12 10:51:53;;;;;;;5.03;3.50;;;30.90;9.20;;;;;;4953405;28;20403;-72
2022/08/12 10:54:20;;;;;;;7.27;3.60;;;30.90;9.20;;;;;;4970545;28;20842;-72
2022/08/12 10:56:48;;;;;;;5.73;3.30;;;30.70;8.70;;;;;;4973845;28;20469;-72
2022/08/12 10:59:20;;;;;;;8.63;3.23;;;30.70;7.90;;;;;;4975349;28;20548;-72
2022/08/12 11:01:48;;;;;;;15.83;3.57;;;31.20;9.60;;;;;;5003192;23;20923;-69
2022/08/12 11:04:15;;;;;;;3.80;3.50;;;31.00;9.10;;;;;;4983743;28;20472;-69
2022/08/12 11:06:47;;;;;;;14.17;3.40;;;31.20;8.20;;;;;;4993766;28;20408;-69
2022/08/12 11:09:18;;;;;;;7.87;3.70;;;31.30;9.50;;;;;;4990365;28;20444;-70
2022/08/12 11:11:48;;;;;;;4.80;3.20;;;31.40;8.20;;;;;;4968139;28;20430;-67
2022/08/12 11:14:26;;;;;;;5.47;3.40;;;31.50;7.90;;;;;;4961550;28;20406;-70
2022/08/12 11:17:19;;;;;;;7.90;3.07;;;31.40;8.40;;;;;;4976166;28;20398;-69
2022/08/12 11:19:44;;;;;;;5.60;3.27;;;30.90;8.00;;;;;;4954649;28;20463;-69
2022/08/12 11:22:10;;;;;;;4.13;3.20;;;30.70;7.70;;;;;;4975454;28;20460;-68
2022/08/12 11:24:36;;;;;;;9.73;3.87;;;30.70;8.00;;;;;;4975416;28;20241;-68
2022/08/12 11:27:07;;;;;;;3.93;3.30;;;31.10;7.40;;;;;;4975816;28;20421;-69
2022/08/12 11:29:35;;;;;;;3.80;3.30;;;32.10;6.20;;;;;;4961738;28;20433;-69
2022/08/12 11:32:00;;;;;;;7.23;3.07;;;32.70;5.90;;;;;;4966653;28;20863;-70
2022/08/12 11:34:26;;;;;;;12.00;3.00;;;33.50;5.70;;;;;;4975387;28;20449;-70
2022/08/12 11:36:54;;;;;;;3.93;2.87;;;34.60;5.30;;;;;;4975424;28;20174;-70
2022/08/12 11:39:20;;;;;;;5.23;2.80;;;35.50;5.30;;;;;;4975529;28;20182;-70
2022/08/12 11:41:46;;;;;;;4.87;2.90;;;35.80;3.90;;;;;;4975033;28;20429;-71
2022/08/12 11:44:13;;;;;;;9.90;2.90;;;36.40;2.60;;;;;;4975772;28;20417;-71
2022/08/12 11:46:39;;;;;;;3.03;2.87;;;37.00;2.60;;;;;;4975394;28;20175;-70
2022/08/12 11:49:06;;;;;;;181.83;11.33;;;36.30;3.80;;;;;;4971021;28;20433;-71
2022/08/12 11:51:33;;;;;;;11.90;2.90;;;37.00;3.70;;;;;;4972379;28;20449;-71
2022/08/12 11:53:58;;;;;;;10.73;2.70;;;37.40;3.70;;;;;;4975077;28;20405;-71
2022/08/12 11:56:24;;;;;;;7.47;2.63;;;37.40;2.80;;;;;;4971216;28;20458;-71
2022/08/12 11:58:49;;;;;;;4.80;2.93;;;37.00;3.10;;;;;;4965022;28;20183;-72
2022/08/12 12:01:16;;;;;;;6.40;2.60;;;37.80;2.60;;;;;;4967203;28;20285;-71
2022/08/12 12:03:41;;;;;;;8.13;2.80;;;37.40;2.80;;;;;;4969251;28;20646;-71
2022/08/12 12:06:07;;;;;;;9.93;2.87;;;37.40;2.80;;;;;;4974623;28;20424;-71
2022/08/12 12:08:33;;;;;;;6.87;3.00;;;37.70;1.70;;;;;;4968531;28;20187;-70
2022/08/12 12:10:59;;;;;;;6.13;2.30;;;37.80;2.10;;;;;;4956321;28;20469;-72
2022/08/12 12:13:24;;;;;;;4.80;2.70;;;37.50;2.40;;;;;;4969387;28;20185;-72
2022/08/12 12:15:50;;;;;;;7.00;2.70;;;38.00;1.10;;;;;;4972846;28;20194;-71
2022/08/12 12:18:29;;;;;;;5.63;2.83;;;37.40;1.40;;;;;;4974587;28;20182;-70
2022/08/12 12:21:00;;;;;;;5.60;2.77;;;35.10;3.30;;;;;;4971331;28;21005;-71
2022/08/12 12:23:27;;;;;;;5.97;2.83;;;34.40;5.00;;;;;;4971409;28;20497;-71
2022/08/12 12:25:53;;;;;;;8.53;3.07;;;34.00;5.00;;;;;;4975093;28;21094;-71
2022/08/12 12:28:19;;;;;;;10.20;3.13;;;32.80;6.20;;;;;;4974328;28;20441;-71
2022/08/12 12:30:44;;;;;;;4.63;3.03;;;32.70;6.80;;;;;;4963568;28;20632;-71
2022/08/12 12:33:11;;;;;;;6.37;3.30;;;33.70;6.30;;;;;;4968819;28;20241;-71
2022/08/12 12:35:38;;;;;;;4.50;3.10;;;35.10;4.20;;;;;;4970148;28;20203;-72
2022/08/12 12:38:06;;;;;;;5.40;3.10;;;34.80;3.80;;;;;;4955412;29;20466;-71
2022/08/12 12:40:34;;;;;;;3.97;3.10;;;33.90;6.00;;;;;;4973586;28;20426;-71
2022/08/12 12:43:00;;;;;;;3.83;3.00;;;33.30;5.70;;;;;;4971629;28;20655;-71
2022/08/12 12:45:26;;;;;;;9.57;3.50;;;32.50;7.40;;;;;;4974013;28;20902;-71
2022/08/12 12:47:55;;;;;;;4.67;3.10;;;31.80;7.80;;;;;;4974431;28;20182;-70
2022/08/12 12:50:21;;;;;;;5.33;3.40;;;31.00;8.30;;;;;;4974588;28;20476;-71
2022/08/12 12:52:46;;;;;;;7.43;3.53;;;31.10;8.10;;;;;;4967867;28;20987;-71
2022/08/12 12:55:14;;;;;;;8.33;3.30;;;30.90;8.70;;;;;;4969917;28;20199;-70
2022/08/12 12:57:41;;;;;;;7.67;3.53;;;31.10;8.00;;;;;;4970965;28;20167;-70
2022/08/12 13:00:13;;;;;;;7.10;3.50;;;31.20;9.10;;;;;;4970978;28;20553;-71
2022/08/12 13:02:54;;;;;;;5.73;3.10;;;31.30;8.20;;;;;;4970924;28;20583;-73
2022/08/12 13:05:33;;;;;;;7.33;3.90;;;31.20;8.10;;;;;;4972612;28;20576;-72
2022/08/12 13:08:00;;;;;;;4.33;3.27;;;31.50;8.60;;;;;;4972304;28;20444;-70
2022/08/12 13:10:27;;;;;;;6.93;3.80;;;31.80;8.90;;;;;;4966230;28;20894;-70
2022/08/12 13:12:53;;;;;;;13.23;3.63;;;32.30;7.40;;;;;;4970456;28;20474;-71
2022/08/12 13:15:20;;;;;;;6.20;3.03;;;32.30;7.00;;;;;;4973315;28;20477;-69
2022/08/12 13:17:48;;;;;;;3.50;3.00;;;31.90;7.50;;;;;;5207507;23;20500;-69
2022/08/12 13:20:16;;;;;;;8.27;3.90;;;31.20;7.40;;;;;;4991288;28;20928;-69
2022/08/12 13:22:41;;;;;;;5.63;3.70;;;31.30;7.10;;;;;;4971263;28;20905;-69
2022/08/12 13:25:07;;;;;;;6.03;3.57;;;31.50;7.20;;;;;;4956879;28;20442;-71
2022/08/12 13:27:36;;;;;;;16.23;3.43;;;31.60;7.00;;;;;;4970404;28;20193;-70
2022/08/12 13:30:08;;;;;;;6.30;3.13;;;31.90;7.90;;;;;;4970221;28;20448;-71
2022/08/12 13:32:36;;;;;;;7.40;3.13;;;31.90;8.30;;;;;;4963897;28;20453;-69
2022/08/12 13:35:02;;;;;;;5.53;3.40;;;32.00;7.60;;;;;;4968112;28;20878;-71
2022/08/12 13:37:28;;;;;;;5.67;3.20;;;31.90;7.80;;;;;;4973470;28;20410;-69
2022/08/12 13:39:54;;;;;;;5.87;3.40;;;32.10;7.10;;;;;;4971201;28;20433;-69
2022/08/12 13:42:21;;;;;;;14.63;3.40;;;32.00;7.00;;;;;;4966720;28;20270;-72
2022/08/12 13:44:51;;;;;;;3.40;3.20;;;31.70;6.70;;;;;;4960236;28;20222;-69
2022/08/12 13:47:20;;;;;;;3.23;3.07;;;31.60;6.60;;;;;;4963923;28;20427;-69
2022/08/12 13:49:47;;;;;;;7.60;3.33;;;30.90;7.50;;;;;;4960586;28;20418;-69
2022/08/12 13:52:13;;;;;;;4.63;3.37;;;31.20;8.00;;;;;;4962470;28;20843;-69
2022/08/12 13:54:39;;;;;;;5.20;3.47;;;31.80;7.50;;;;;;4962894;28;20461;-69
2022/08/12 13:57:05;;;;;;;11.93;3.40;;;32.40;7.30;;;;;;4961172;28;20764;-69
2022/08/12 13:59:30;;;;;;;9.87;3.17;;;32.80;6.20;;;;;;4963029;28;20182;-69
2022/08/12 14:01:56;;;;;;;13.80;3.53;;;32.60;6.30;;;;;;4964457;28;20201;-71
2022/08/12 14:04:21;;;;;;;8.87;3.20;;;32.30;6.10;;;;;;4960920;28;20249;-69
2022/08/12 14:06:49;;;;;;;7.00;3.80;;;32.70;8.00;;;;;;4961116;28;20417;-69
2022/08/12 14:09:15;;;;;;;7.40;3.67;;;33.20;7.80;;;;;;4962929;28;20231;-70
2022/08/12 14:11:41;;;;;;;9.37;3.20;;;33.60;6.20;;;;;;4963068;28;20426;-69
2022/08/12 14:14:08;;;;;;;5.40;3.10;;;33.60;5.60;;;;;;4961403;28;20437;-69
2022/08/12 14:16:34;;;;;;;4.93;3.20;;;33.80;5.30;;;;;;4963855;28;20997;-69
2022/08/12 14:19:00;;;;;;;7.83;3.20;;;34.00;4.90;;;;;;4960865;28;20443;-69
2022/08/12 14:21:27;;;;;;;4.33;3.40;;;34.10;5.20;;;;;;4961981;28;20429;-69
2022/08/12 14:23:53;;;;;;;4.83;3.10;;;33.80;6.50;;;;;;4962332;28;20174;-70
2022/08/12 14:26:20;;;;;;;15.67;3.10;;;34.40;5.60;;;;;;4965185;28;20429;-71
2022/08/12 14:28:46;;;;;;;5.10;2.93;;;34.60;4.20;;;;;;4972761;28;20167;-69
2022/08/12 14:31:14;;;;;;;5.97;3.20;;;33.60;5.60;;;;;;4972110;28;20544;-69
2022/08/12 14:33:46;;;;;;;5.40;3.27;;;33.00;8.00;;;;;;4972628;28;20412;-71
2022/08/12 14:36:23;;;;;;;3.00;2.80;;;32.80;6.30;;;;;;4964858;28;20466;-71
2022/08/12 14:38:51;;;;;;;4.17;3.30;;;32.60;7.70;;;;;;4971597;28;20932;-69
2022/08/12 14:41:19;;;;;;;5.53;3.60;;;32.60;7.90;;;;;;4970841;28;20449;-69
2022/08/12 14:43:47;;;;;;;5.87;3.60;;;32.50;8.40;;;;;;4966260;28;20790;-69